Time;durP1;ratioP1;P1;durP2;ratioP2;P2;SDS_P1;SDS_P2;PMS_P1;PMS_P2;Temp;Humidity;BMP_temperature;BMP_pressure;BME280_temperature;BME280_humidity;BME280_pressure;Samples;Min_cycle;Max_cycle;Signal;HPM_P1;HPM_P2
2023/12/20 00:01:53;;;;;;;15.73;3.60;;;;;;;7.65;100.00;101545.75;5328926;27;20129;-77
2023/12/20 00:04:25;;;;;;;11.52;3.55;;;;;;;7.60;100.00;101547.78;5353956;27;20031;-77
2023/12/20 00:06:57;;;;;;;12.18;3.10;;;;;;;7.52;100.00;101542.19;5345804;27;20019;-77
2023/12/20 00:09:29;;;;;;;9.27;3.35;;;;;;;7.52;100.00;101552.63;5348204;27;20082;-77
2023/12/20 00:12:01;;;;;;;9.57;2.95;;;;;;;7.51;100.00;101564.00;5350646;27;20027;-77
2023/12/20 00:14:33;;;;;;;11.68;3.13;;;;;;;7.46;100.00;101564.28;5348967;27;20031;-77
2023/12/20 00:17:05;;;;;;;15.35;3.22;;;;;;;7.40;100.00;101563.78;5350436;27;20031;-77
2023/12/20 00:19:36;;;;;;;15.45;3.42;;;;;;;7.37;100.00;101562.19;5348573;27;20033;-77
2023/12/20 00:22:08;;;;;;;10.07;2.88;;;;;;;7.38;100.00;101565.63;5345807;27;20563;-77
2023/12/20 00:24:40;;;;;;;12.85;2.70;;;;;;;7.37;100.00;101563.97;5352883;27;20394;-77
2023/12/20 00:27:12;;;;;;;14.27;2.83;;;;;;;7.36;100.00;101565.75;5345933;27;21193;-77
2023/12/20 00:29:47;;;;;;;15.20;3.47;;;;;;;7.31;100.00;101552.13;5328339;27;20047;-77
2023/12/20 00:32:19;;;;;;;12.23;2.42;;;;;;;7.26;100.00;101562.00;5346249;27;20357;-77
2023/12/20 00:34:51;;;;;;;13.48;2.80;;;;;;;7.23;100.00;101554.34;5346488;27;20021;-77
2023/12/20 00:37:24;;;;;;;13.13;3.10;;;;;;;7.21;100.00;101553.63;5350086;27;20029;-77
2023/12/20 00:39:55;;;;;;;11.63;3.00;;;;;;;7.14;100.00;101536.66;5347036;27;20361;-77
2023/12/20 00:42:27;;;;;;;10.70;2.40;;;;;;;7.14;100.00;101549.69;5353784;27;20029;-77
2023/12/20 00:45:00;;;;;;;11.52;2.42;;;;;;;7.13;100.00;101548.03;5352520;27;20033;-77
2023/12/20 00:47:31;;;;;;;11.70;2.70;;;;;;;7.07;100.00;101542.22;5356310;27;20023;-77
2023/12/20 00:50:04;;;;;;;9.00;2.20;;;;;;;7.00;100.00;101533.09;5352587;27;20034;-77
2023/12/20 00:52:36;;;;;;;13.83;3.00;;;;;;;7.05;100.00;101546.72;5350094;27;20035;-77
2023/12/20 00:55:08;;;;;;;12.43;2.85;;;;;;;7.04;100.00;101546.78;5347392;27;20407;-77
2023/12/20 00:57:39;;;;;;;8.93;2.40;;;;;;;7.01;100.00;101534.78;5348170;27;20379;-77
2023/12/20 01:00:13;;;;;;;11.57;2.47;;;;;;;6.98;100.00;101537.56;5348201;27;20121;-77
2023/12/20 01:02:46;;;;;;;13.18;2.97;;;;;;;7.01;100.00;101537.41;5350291;27;20030;-77
2023/12/20 01:05:19;;;;;;;;;;;;;;;7.54;100.00;101538.56;5350559;27;20038;-77
2023/12/20 01:07:50;;;;;;;10.48;2.25;;;;;;;7.00;100.00;101534.88;5351456;27;19926;-77
2023/12/20 01:10:22;;;;;;;10.40;2.05;;;;;;;6.96;100.00;101536.81;5348162;27;20114;-77
2023/12/20 01:12:55;;;;;;;9.75;2.20;;;;;;;6.94;100.00;101540.44;5347559;27;20039;-77
2023/12/20 01:15:27;;;;;;;12.63;2.23;;;;;;;6.94;100.00;101538.69;5331348;27;20507;-77
2023/12/20 01:17:59;;;;;;;8.77;2.08;;;;;;;6.98;100.00;101550.59;5351886;27;20042;-77
2023/12/20 01:20:31;;;;;;;11.83;2.37;;;;;;;6.94;100.00;101549.09;5349559;27;20035;-77
2023/12/20 01:23:03;;;;;;;10.10;2.78;;;;;;;6.93;100.00;101547.44;5349181;27;20378;-77
2023/12/20 01:25:35;;;;;;;13.27;2.60;;;;;;;6.95;100.00;101548.16;5352298;27;20031;-77
2023/12/20 01:28:06;;;;;;;8.95;2.72;;;;;;;6.96;100.00;101549.84;5350899;27;20023;-77
2023/12/20 01:30:38;;;;;;;12.80;2.92;;;;;;;6.96;100.00;101552.44;5350317;27;20041;-77
2023/12/20 01:33:10;;;;;;;17.02;3.55;;;;;;;6.88;100.00;101548.63;5350314;27;20023;-77
2023/12/20 01:35:42;;;;;;;10.80;2.28;;;;;;;6.88;100.00;101562.47;5349190;27;20027;-77
2023/12/20 01:38:14;;;;;;;13.52;2.70;;;;;;;6.86;100.00;101551.31;5350343;27;20539;-77
2023/12/20 01:40:46;;;;;;;17.10;2.72;;;;;;;6.85;100.00;101564.41;5349255;27;20034;-77
2023/12/20 01:43:18;;;;;;;13.20;2.72;;;;;;;6.86;100.00;101561.75;5352583;27;20023;-77
2023/12/20 01:45:50;;;;;;;9.88;2.45;;;;;;;6.88;100.00;101549.44;5332778;27;20045;-77
2023/12/20 01:48:22;;;;;;;7.68;2.40;;;;;;;6.79;100.00;101555.19;5350233;27;20037;-77
2023/12/20 01:50:54;;;;;;;13.60;2.45;;;;;;;6.78;100.00;101553.50;5331540;27;20044;-77
2023/12/20 01:53:27;;;;;;;12.63;3.13;;;;;;;6.81;100.00;101548.13;5347628;27;20035;-77
2023/12/20 01:56:00;;;;;;;11.73;2.80;;;;;;;6.75;100.00;101540.69;5351022;27;20039;-77
2023/12/20 01:58:32;;;;;;;11.35;3.70;;;;;;;6.78;100.00;101554.38;5347954;27;20034;-77
2023/12/20 02:01:04;;;;;;;13.70;3.53;;;;;;;6.77;100.00;101549.22;5346836;27;20476;-77
2023/12/20 02:03:36;;;;;;;16.15;3.42;;;;;;;6.72;100.00;101551.28;5349452;27;20368;-77
2023/12/20 02:06:09;;;;;;;13.23;2.63;;;;;;;6.70;100.00;101546.13;5350921;27;20049;-77
2023/12/20 02:08:41;;;;;;;13.50;3.05;;;;;;;6.64;100.00;101536.09;5347301;27;20031;-77
2023/12/20 02:11:13;;;;;;;10.90;3.20;;;;;;;6.71;100.00;101547.00;5349647;27;20583;-77
2023/12/20 02:13:45;;;;;;;19.77;3.55;;;;;;;6.69;100.00;101548.84;5349805;27;20174;-78
2023/12/20 02:16:17;;;;;;;9.90;2.60;;;;;;;6.69;100.00;101554.03;5351081;27;20023;-77
2023/12/20 02:18:49;;;;;;;11.77;3.08;;;;;;;6.68;100.00;101550.59;5344153;27;20066;-77
2023/12/20 02:21:36;;;;;;;8.77;2.05;;;;;;;6.85;100.00;101551.38;5348895;27;20030;-77
2023/12/20 02:24:08;;;;;;;11.85;2.95;;;;;;;6.70;100.00;101555.72;5347634;27;20035;-77
2023/12/20 02:26:40;;;;;;;18.05;3.42;;;;;;;6.67;100.00;101558.50;5348232;27;20102;-77
2023/12/20 02:29:12;;;;;;;14.80;2.87;;;;;;;6.66;100.00;101546.41;5350495;27;20039;-77
2023/12/20 02:31:44;;;;;;;14.88;3.08;;;;;;;6.65;100.00;101539.53;5343917;27;20482;-77
2023/12/20 02:34:16;;;;;;;15.68;3.67;;;;;;;6.66;100.00;101541.19;5348964;27;20035;-77
2023/12/20 02:36:47;;;;;;;15.13;2.83;;;;;;;6.66;100.00;101544.63;5324498;27;20031;-77
2023/12/20 02:39:22;;;;;;;13.30;3.15;;;;;;;6.64;100.00;101543.06;5347362;27;20117;-77
2023/12/20 02:41:54;;;;;;;12.10;2.90;;;;;;;6.62;100.00;101555.31;5346250;27;20027;-77
2023/12/20 02:44:25;;;;;;;9.45;3.17;;;;;;;6.58;100.00;101547.66;5344825;27;20064;-77
2023/12/20 02:46:57;;;;;;;13.05;3.10;;;;;;;6.61;100.00;101551.03;5346795;27;20110;-77
2023/12/20 02:49:29;;;;;;;9.10;2.65;;;;;;;6.63;100.00;101547.44;5348904;27;20037;-77
2023/12/20 02:52:01;;;;;;;13.00;3.17;;;;;;;6.64;100.00;101548.28;5346668;27;20110;-77
2023/12/20 02:54:33;;;;;;;10.38;2.45;;;;;;;6.64;100.00;101546.50;5344647;27;20047;-77
2023/12/20 02:57:05;;;;;;;15.75;3.22;;;;;;;6.68;100.00;101547.16;5348875;27;20061;-78
2023/12/20 02:59:37;;;;;;;11.82;3.38;;;;;;;6.60;100.00;101533.75;5342947;27;20392;-77
2023/12/20 03:02:09;;;;;;;14.00;3.35;;;;;;;6.68;100.00;101541.97;5349387;27;20037;-78
2023/12/20 03:04:41;;;;;;;15.85;3.40;;;;;;;6.66;100.00;101538.59;5346906;27;20049;-77
2023/12/20 03:07:13;;;;;;;12.40;3.17;;;;;;;6.65;100.00;101540.34;5343918;27;20102;-77
2023/12/20 03:09:45;;;;;;;14.90;3.80;;;;;;;6.63;100.00;101531.81;5341271;27;20034;-77
2023/12/20 03:12:17;;;;;;;15.98;3.80;;;;;;;6.59;100.00;101535.50;5341856;27;20482;-78
2023/12/20 03:14:49;;;;;;;14.32;3.20;;;;;;;6.61;100.00;101533.66;5342038;27;20039;-77
2023/12/20 03:17:21;;;;;;;13.00;3.20;;;;;;;6.61;100.00;101536.25;5344575;27;20019;-77
2023/12/20 03:19:53;;;;;;;15.73;3.22;;;;;;;6.57;100.00;101532.97;5343976;27;20062;-77
2023/12/20 03:22:25;;;;;;;16.25;3.78;;;;;;;6.59;100.00;101535.50;5344180;27;20043;-77
2023/12/20 03:24:57;;;;;;;14.88;4.53;;;;;;;6.58;100.00;101534.66;5345011;27;20105;-78
2023/12/20 03:27:28;;;;;;;15.38;3.92;;;;;;;6.90;100.00;101516.34;5347501;27;20151;-78
2023/12/20 03:30:00;;;;;;;18.23;4.43;;;;;;;6.92;100.00;101518.84;5342091;27;20027;-77
2023/12/20 03:32:32;;;;;;;17.60;5.10;;;;;;;6.97;100.00;101515.06;5346205;27;20023;-77
2023/12/20 03:35:04;;;;;;;14.93;3.90;;;;;;;7.05;100.00;101512.84;5344700;27;20109;-78
2023/12/20 03:37:37;;;;;;;15.60;3.22;;;;;;;7.10;100.00;101506.50;5343268;27;20526;-78
2023/12/20 03:40:09;;;;;;;13.93;3.10;;;;;;;7.11;100.00;101513.41;5345171;27;20034;-78
2023/12/20 03:42:41;;;;;;;11.25;3.17;;;;;;;7.19;100.00;101509.38;5340772;27;20042;-78
2023/12/20 03:45:13;;;;;;;16.67;3.50;;;;;;;7.20;100.00;101513.69;5345032;27;20026;-77
2023/12/20 03:47:45;;;;;;;12.27;3.60;;;;;;;7.21;100.00;101506.72;5347957;27;20030;-77
2023/12/20 03:50:16;;;;;;;13.02;3.30;;;;;;;7.22;100.00;101506.59;5344067;27;20034;-77
2023/12/20 03:52:48;;;;;;;16.08;4.13;;;;;;;7.29;100.00;101507.91;5347201;27;20034;-77
2023/12/20 03:55:20;;;;;;;16.83;4.35;;;;;;;7.27;100.00;101506.31;5346967;27;20047;-77
2023/12/20 03:57:52;;;;;;;15.15;4.75;;;;;;;7.35;100.00;101516.28;5345236;27;20041;-77
2023/12/20 04:00:24;;;;;;;17.10;4.32;;;;;;;7.41;100.00;101518.53;5347140;27;20113;-78
2023/12/20 04:02:56;;;;;;;12.63;3.97;;;;;;;7.45;100.00;101523.47;5344312;27;20027;-77
2023/12/20 04:05:28;;;;;;;15.20;3.97;;;;;;;7.46;100.00;101526.91;5347386;27;20369;-77
2023/12/20 04:08:01;;;;;;;15.95;4.43;;;;;;;7.52;100.00;101518.72;5351189;27;20030;-77
2023/12/20 04:10:33;;;;;;;12.38;4.13;;;;;;;7.46;100.00;101512.13;5343876;27;20039;-77
2023/12/20 04:13:05;;;;;;;17.77;4.43;;;;;;;7.50;100.00;101515.34;5337221;27;20499;-77
2023/12/20 04:15:37;;;;;;;14.20;4.47;;;;;;;7.50;100.00;101521.44;5348048;27;20450;-77
2023/12/20 04:18:09;;;;;;;13.57;3.78;;;;;;;7.52;100.00;101521.31;5348711;27;20499;-77
2023/12/20 04:20:41;;;;;;;12.82;4.13;;;;;;;7.55;100.00;101521.16;5350064;27;20031;-77
2023/12/20 04:23:13;;;;;;;16.20;4.60;;;;;;;7.61;100.00;101517.31;5347960;27;20034;-77
2023/12/20 04:25:44;;;;;;;14.13;3.80;;;;;;;7.62;100.00;101517.22;5351223;27;20033;-77
2023/12/20 04:28:16;;;;;;;14.00;4.57;;;;;;;7.68;100.00;101524.66;5330443;27;20474;-77
2023/12/20 04:30:48;;;;;;;15.60;4.97;;;;;;;7.65;100.00;101526.63;5354792;27;20391;-77
2023/12/20 04:33:20;;;;;;;16.73;4.60;;;;;;;7.58;100.00;101502.72;5349421;27;20058;-77
2023/12/20 04:35:52;;;;;;;15.02;4.10;;;;;;;7.73;100.00;101527.00;5345588;27;20039;-78
2023/12/20 04:38:24;;;;;;;14.88;3.65;;;;;;;7.76;100.00;101526.78;5334045;27;20053;-77
2023/12/20 04:40:56;;;;;;;11.40;4.32;;;;;;;7.65;100.00;101505.75;5354235;27;20464;-77
2023/12/20 04:43:29;;;;;;;18.23;3.97;;;;;;;7.77;100.00;101518.06;5351849;27;20448;-77
2023/12/20 04:46:01;;;;;;;14.57;4.20;;;;;;;7.72;100.00;101510.50;5345909;27;20027;-77
2023/12/20 04:48:33;;;;;;;12.10;3.30;;;;;;;7.74;100.00;101529.50;5346344;27;20035;-77
2023/12/20 04:51:05;;;;;;;18.73;4.85;;;;;;;7.78;100.00;101530.16;5348712;27;20425;-77
2023/12/20 04:53:37;;;;;;;15.07;3.70;;;;;;;7.77;100.00;101515.44;5349106;27;20053;-77
2023/12/20 04:56:09;;;;;;;11.75;3.70;;;;;;;7.78;100.00;101523.16;5346223;27;20035;-77
2023/12/20 04:58:42;;;;;;;13.88;3.10;;;;;;;7.73;100.00;101522.63;5339957;27;20075;-77
2023/12/20 05:01:14;;;;;;;14.63;3.85;;;;;;;7.84;100.00;101529.78;5351033;27;20400;-77
2023/12/20 05:03:46;;;;;;;15.10;4.15;;;;;;;7.81;100.00;101522.16;5355501;27;20461;-77
2023/12/20 05:06:18;;;;;;;19.77;5.07;;;;;;;7.77;100.00;101508.47;5329698;27;20036;-77
2023/12/20 05:08:50;;;;;;;18.25;4.90;;;;;;;7.83;100.00;101504.63;5346819;27;20031;-77
2023/12/20 05:11:22;;;;;;;18.80;3.80;;;;;;;7.83;100.00;101507.22;5352626;27;20029;-78
2023/12/20 05:13:53;;;;;;;15.30;3.97;;;;;;;7.84;100.00;101510.66;5347024;27;20035;-77
2023/12/20 05:16:25;;;;;;;15.00;4.47;;;;;;;7.84;100.00;101501.09;5353152;27;20517;-77
2023/12/20 05:18:58;;;;;;;16.52;4.60;;;;;;;7.89;100.00;101496.41;5352060;27;20034;-77
2023/12/20 05:21:30;;;;;;;14.05;3.83;;;;;;;7.92;100.00;101503.22;5349510;27;20620;-77
2023/12/20 05:24:03;;;;;;;20.98;4.00;;;;;;;7.94;100.00;101509.16;5344993;27;20026;-77
2023/12/20 05:26:35;;;;;;;16.97;4.00;;;;;;;7.92;100.00;101504.06;5336464;27;20024;-78
2023/12/20 05:29:06;;;;;;;12.90;3.45;;;;;;;7.93;100.00;101508.31;5343455;27;20036;-78
2023/12/20 05:31:38;;;;;;;13.05;3.10;;;;;;;7.93;100.00;101507.50;5344456;27;20113;-77
2023/12/20 05:34:10;;;;;;;12.68;4.13;;;;;;;7.92;100.00;101508.44;5345092;27;20035;-77
2023/12/20 05:36:45;;;;;;;17.05;3.97;;;;;;;7.91;100.00;101511.97;5347464;27;20417;-77
2023/12/20 05:39:17;;;;;;;16.48;4.18;;;;;;;7.81;100.00;101506.50;5343872;27;20035;-77
2023/12/20 05:41:49;;;;;;;15.57;4.05;;;;;;;7.84;100.00;101513.28;5346829;27;20050;-77
2023/12/20 05:44:21;;;;;;;13.05;3.75;;;;;;;7.82;100.00;101510.78;5344970;27;20526;-77
2023/12/20 05:46:53;;;;;;;17.98;3.95;;;;;;;7.71;100.00;101495.78;5349795;27;20464;-77
2023/12/20 05:49:25;;;;;;;15.82;3.80;;;;;;;7.71;100.00;101514.03;5347754;27;20447;-77
2023/12/20 05:51:57;;;;;;;16.27;4.45;;;;;;;7.71;100.00;101516.66;5345253;27;20031;-77
2023/12/20 05:54:29;;;;;;;21.80;5.50;;;;;;;7.64;100.00;101517.13;5339933;27;20051;-77
2023/12/20 05:57:01;;;;;;;15.68;3.70;;;;;;;7.56;100.00;101515.81;5345026;27;20027;-77
2023/12/20 05:59:32;;;;;;;16.83;3.80;;;;;;;7.48;100.00;101512.03;5349718;27;20035;-78
2023/12/20 06:02:04;;;;;;;13.88;3.67;;;;;;;7.48;100.00;101520.69;5330426;27;20110;-77
2023/12/20 06:04:36;;;;;;;16.02;4.45;;;;;;;7.45;100.00;101527.84;5330028;27;20035;-77
2023/12/20 06:07:08;;;;;;;14.18;3.97;;;;;;;7.43;100.00;101535.78;5345864;27;20386;-78
2023/12/20 06:09:40;;;;;;;15.25;3.80;;;;;;;7.41;100.00;101540.22;5345631;27;20053;-78
2023/12/20 06:12:12;;;;;;;15.77;4.05;;;;;;;7.36;100.00;101534.47;5345185;27;20044;-77
2023/12/20 06:14:44;;;;;;;15.20;3.95;;;;;;;7.37;100.00;101532.69;5348885;27;20026;-77
2023/12/20 06:17:16;;;;;;;14.23;3.75;;;;;;;7.38;100.00;101532.59;5346430;27;20319;-77
2023/12/20 06:19:48;;;;;;;12.23;3.95;;;;;;;7.27;100.00;101514.16;5342452;27;20026;-78
2023/12/20 06:22:19;;;;;;;18.50;4.75;;;;;;;7.31;100.00;101531.28;5345826;27;20403;-78
2023/12/20 06:24:51;;;;;;;13.90;4.07;;;;;;;7.30;100.00;101527.84;5347800;27;20038;-78
2023/12/20 06:27:23;;;;;;;15.40;4.95;;;;;;;7.27;100.00;101527.19;5344037;27;20033;-77
2023/12/20 06:29:55;;;;;;;17.08;4.32;;;;;;;7.23;100.00;101529.13;5346970;27;20040;-77
2023/12/20 06:32:28;;;;;;;12.10;3.92;;;;;;;7.19;100.00;101518.97;5347424;27;20041;-76
2023/12/20 06:35:00;;;;;;;;;;;;;;;7.88;100.00;101530.41;5345684;27;20023;-77
2023/12/20 06:37:32;;;;;;;13.93;4.30;;;;;;;7.30;100.00;101527.00;5345554;27;20039;-77
2023/12/20 06:40:05;;;;;;;18.98;5.15;;;;;;;7.30;100.00;101527.84;5341638;27;20019;-77
2023/12/20 06:42:37;;;;;;;17.40;4.55;;;;;;;7.30;100.00;101517.41;5343650;27;20105;-77
2023/12/20 06:45:10;;;;;;;12.45;4.57;;;;;;;7.29;100.00;101517.50;5346172;27;20034;-77
2023/12/20 06:47:42;;;;;;;17.98;4.50;;;;;;;7.30;100.00;101513.97;5328110;27;20035;-77
2023/12/20 06:50:14;;;;;;;17.15;4.22;;;;;;;7.30;100.00;101519.19;5333490;27;20046;-77
2023/12/20 06:52:46;;;;;;;11.02;3.45;;;;;;;7.31;100.00;101518.25;5345787;27;20026;-77
2023/12/20 06:55:18;;;;;;;16.10;5.05;;;;;;;7.34;100.00;101528.47;5346285;27;20053;-78
2023/12/20 06:57:49;;;;;;;18.30;4.82;;;;;;;7.30;100.00;101511.34;5344578;27;20472;-77
2023/12/20 07:00:21;;;;;;;14.77;4.85;;;;;;;7.32;100.00;101520.78;5345951;27;20396;-77
2023/12/20 07:02:53;;;;;;;18.83;4.68;;;;;;;7.29;100.00;101523.56;5346619;27;20042;-77
2023/12/20 07:05:26;;;;;;;15.02;4.40;;;;;;;7.30;100.00;101519.19;5341842;27;20042;-77
2023/12/20 07:07:58;;;;;;;20.92;5.70;;;;;;;7.33;100.00;101524.22;5340849;27;20023;-77
2023/12/20 07:10:30;;;;;;;12.63;3.90;;;;;;;7.23;100.00;101517.88;5345097;27;20166;-77
2023/12/20 07:13:02;;;;;;;17.23;4.63;;;;;;;7.29;100.00;101526.16;5345449;27;20022;-77
2023/12/20 07:15:35;;;;;;;15.63;4.50;;;;;;;7.34;100.00;101517.22;5335821;27;20070;-77
2023/12/20 07:18:07;;;;;;;14.55;4.40;;;;;;;7.33;100.00;101521.59;5336013;27;20311;-77
2023/12/20 07:20:39;;;;;;;20.52;4.50;;;;;;;7.34;100.00;101520.66;5348810;27;20031;-77
2023/12/20 07:23:11;;;;;;;13.77;4.68;;;;;;;7.38;100.00;101519.53;5343172;27;20047;-77
2023/12/20 07:25:43;;;;;;;19.08;4.60;;;;;;;7.40;100.00;101525.53;5346289;27;20381;-77
2023/12/20 07:28:15;;;;;;;19.90;5.80;;;;;;;7.39;100.00;101523.84;5347988;27;20068;-77
2023/12/20 07:30:47;;;;;;;15.13;5.20;;;;;;;7.43;100.00;101538.38;5345665;27;20035;-77
2023/12/20 07:33:18;;;;;;;14.15;4.50;;;;;;;7.39;100.00;101521.25;5349736;27;20027;-77
2023/12/20 07:35:51;;;;;;;14.95;4.13;;;;;;;7.43;100.00;101520.13;5343348;27;20038;-77
2023/12/20 07:38:23;;;;;;;17.00;4.07;;;;;;;7.46;100.00;101522.56;5346741;27;20027;-77
2023/12/20 07:40:55;;;;;;;20.35;4.72;;;;;;;7.47;100.00;101521.63;5341284;27;20027;-77
2023/12/20 07:43:27;;;;;;;14.32;3.85;;;;;;;7.43;100.00;101520.13;5343329;27;20398;-77
2023/12/20 07:46:04;;;;;;;12.82;4.40;;;;;;;7.51;100.00;101522.28;5344573;27;20117;-77
2023/12/20 07:48:37;;;;;;;17.60;4.80;;;;;;;7.45;100.00;101502.59;5345686;27;20038;-77
2023/12/20 07:51:09;;;;;;;18.53;4.67;;;;;;;7.49;100.00;101506.69;5333906;27;20506;-77
2023/12/20 07:53:41;;;;;;;15.13;3.90;;;;;;;7.52;100.00;101509.13;5345113;27;20070;-78
2023/12/20 07:56:17;;;;;;;13.35;3.65;;;;;;;7.61;100.00;101507.72;5344520;27;20026;-77
2023/12/20 07:58:49;;;;;;;14.30;5.07;;;;;;;7.60;100.00;101516.47;5333767;27;20039;-78
2023/12/20 08:01:21;;;;;;;14.55;3.90;;;;;;;7.59;100.00;101529.63;5347450;27;20033;-77
2023/12/20 08:03:53;;;;;;;18.98;4.22;;;;;;;7.64;100.00;101522.34;5346990;27;20033;-77
2023/12/20 08:06:25;;;;;;;18.83;4.47;;;;;;;7.61;100.00;101531.19;5350759;27;20044;-77
2023/12/20 08:08:57;;;;;;;17.10;4.45;;;;;;;7.70;100.00;101538.47;5352626;27;20434;-77
2023/12/20 08:11:29;;;;;;;15.65;4.55;;;;;;;7.71;100.00;101528.84;5344818;27;20034;-77
2023/12/20 08:14:01;;;;;;;21.13;4.87;;;;;;;7.74;100.00;101533.88;5349110;27;20443;-77
2023/12/20 08:16:33;;;;;;;18.95;3.97;;;;;;;7.74;100.00;101528.69;5351586;27;20673;-77
2023/12/20 08:19:05;;;;;;;14.10;4.15;;;;;;;7.79;100.00;101531.81;5348153;27;20383;-77
2023/12/20 08:21:37;;;;;;;14.40;3.35;;;;;;;7.76;100.00;101513.75;5347284;27;20030;-77
2023/12/20 08:24:08;;;;;;;14.98;4.75;;;;;;;7.75;100.00;101527.72;5339223;27;20090;-77
2023/12/20 08:26:40;;;;;;;18.17;4.45;;;;;;;7.78;100.00;101540.59;5336572;27;20110;-77
2023/12/20 08:29:13;;;;;;;16.92;5.35;;;;;;;7.80;100.00;101529.13;5348234;27;20028;-77
2023/12/20 08:31:46;;;;;;;15.05;4.10;;;;;;;7.89;100.00;101530.31;5349435;27;20034;-77
2023/12/20 08:34:18;;;;;;;15.20;4.20;;;;;;;7.90;100.00;101536.38;5346831;27;20876;-77
2023/12/20 08:36:51;;;;;;;20.10;4.90;;;;;;;7.91;100.00;101546.72;5337755;27;20027;-77
2023/12/20 08:39:23;;;;;;;11.65;3.88;;;;;;;7.98;100.00;101547.16;5336852;27;20380;-77
2023/12/20 08:41:54;;;;;;;15.93;5.00;;;;;;;8.00;100.00;101540.94;5353593;27;20130;-77
2023/12/20 08:44:26;;;;;;;14.18;3.70;;;;;;;7.93;100.00;101531.81;5350859;27;20095;-77
2023/12/20 08:46:58;;;;;;;17.45;4.55;;;;;;;8.07;100.00;101525.72;5349504;27;20277;-77
2023/12/20 08:49:31;;;;;;;17.88;4.53;;;;;;;8.05;100.00;101531.03;5347734;27;20027;-77
2023/12/20 08:52:03;;;;;;;18.97;4.90;;;;;;;8.18;100.00;101519.81;5347133;27;20031;-77
2023/12/20 08:54:35;;;;;;;12.80;3.90;;;;;;;8.14;100.00;101518.31;5344300;27;20300;-77
2023/12/20 08:57:07;;;;;;;13.60;3.97;;;;;;;8.13;100.00;101503.63;5346876;27;20033;-77
2023/12/20 08:59:38;;;;;;;12.55;3.75;;;;;;;8.13;100.00;101511.44;5355046;27;20027;-77
2023/12/20 09:02:10;;;;;;;15.88;4.03;;;;;;;8.16;100.00;101508.63;5351023;27;20133;-77
2023/12/20 09:04:43;;;;;;;18.40;4.70;;;;;;;8.17;100.00;101505.09;5353166;27;20031;-77
2023/12/20 09:07:24;;;;;;;13.40;4.65;;;;;;;8.29;100.00;101509.50;5354199;27;20042;-77
2023/12/20 09:09:56;;;;;;;19.48;4.25;;;;;;;8.10;100.00;101502.03;5356461;27;20031;-77
2023/12/20 09:12:28;;;;;;;16.05;4.40;;;;;;;8.19;100.00;101518.91;5351828;27;20038;-77
2023/12/20 09:15:02;;;;;;;16.10;4.25;;;;;;;8.17;100.00;101513.75;5353246;27;20110;-77
2023/12/20 09:17:34;;;;;;;15.45;4.18;;;;;;;8.19;100.00;101522.34;5350111;27;20027;-77
2023/12/20 09:20:07;;;;;;;11.52;3.28;;;;;;;8.26;100.00;101510.56;5346913;27;20038;-77
2023/12/20 09:22:41;;;;;;;13.20;3.78;;;;;;;8.20;100.00;101510.94;5348194;27;20031;-77
2023/12/20 09:25:14;;;;;;;15.25;3.92;;;;;;;8.20;100.00;101520.56;5346686;27;20545;-77
2023/12/20 09:27:46;;;;;;;13.18;3.90;;;;;;;8.24;100.00;101520.25;5349493;27;20419;-77
2023/12/20 09:30:18;;;;;;;16.30;3.80;;;;;;;8.25;100.00;101526.31;5352186;27;20019;-77
2023/12/20 09:32:50;;;;;;;15.18;4.55;;;;;;;8.24;100.00;101529.88;5348389;27;20042;-77
2023/12/20 09:35:22;;;;;;;15.20;3.90;;;;;;;8.22;100.00;101514.31;5334991;27;20035;-76
2023/12/20 09:37:54;;;;;;;11.88;3.85;;;;;;;8.31;100.00;101510.25;5329246;27;20483;-77
2023/12/20 09:40:27;;;;;;;14.13;3.65;;;;;;;8.27;100.00;101504.41;5351121;27;20388;-77
2023/12/20 09:43:03;;;;;;;;;;;;;;;8.88;100.00;101496.94;5345532;27;20039;-77
2023/12/20 09:45:35;;;;;;;16.85;4.10;;;;;;;8.35;100.00;101498.69;5346164;27;19917;-76
2023/12/20 09:48:07;;;;;;;10.05;2.90;;;;;;;8.35;100.00;101509.13;5342671;27;20019;-77
2023/12/20 09:50:39;;;;;;;14.90;3.92;;;;;;;8.34;100.00;101512.69;5344978;27;20023;-76
2023/12/20 09:53:15;;;;;;;17.00;3.75;;;;;;;8.47;100.00;101499.69;5347860;27;20019;-76
2023/12/20 09:55:47;;;;;;;12.55;3.28;;;;;;;8.41;100.00;101514.00;5345272;27;20429;-76
2023/12/20 09:58:19;;;;;;;17.08;3.50;;;;;;;8.48;100.00;101503.97;5347706;27;20050;-76
2023/12/20 10:00:53;;;;;;;15.57;3.80;;;;;;;8.54;100.00;101506.19;5346740;27;20083;-76
2023/12/20 10:03:28;;;;;;;10.13;3.30;;;;;;;8.54;100.00;101511.41;5339563;27;20130;-77
2023/12/20 10:06:00;;;;;;;20.92;4.07;;;;;;;8.48;100.00;101515.25;5347284;27;20027;-76
2023/12/20 10:08:32;;;;;;;19.05;4.22;;;;;;;8.56;100.00;101508.69;5346626;27;20034;-76
2023/12/20 10:11:05;;;;;;;13.75;3.35;;;;;;;8.56;100.00;101514.78;5349320;27;20408;-77
2023/12/20 10:13:40;;;;;;;11.30;3.20;;;;;;;8.65;100.00;101506.31;5344266;27;20030;-76
2023/12/20 10:16:12;;;;;;;15.55;4.10;;;;;;;8.61;100.00;101501.41;5344495;27;20035;-76
2023/12/20 10:18:45;;;;;;;14.27;3.53;;;;;;;8.66;100.00;101501.94;5342267;27;20037;-76
2023/12/20 10:21:17;;;;;;;17.83;3.90;;;;;;;8.70;100.00;101491.16;5343475;27;20026;-76
2023/12/20 10:23:50;;;;;;;13.82;3.97;;;;;;;8.65;100.00;101489.81;5347063;27;20291;-76
2023/12/20 10:26:23;;;;;;;12.93;3.20;;;;;;;8.78;100.00;101503.72;5345813;27;20023;-77
2023/12/20 10:29:03;;;;;;;13.88;3.30;;;;;;;8.93;100.00;101497.47;5341089;27;20042;-77
2023/12/20 10:31:36;;;;;;;11.55;3.33;;;;;;;8.83;100.00;101506.88;5345016;27;20027;-76
2023/12/20 10:34:08;;;;;;;14.52;3.50;;;;;;;8.86;100.00;101500.59;5347124;27;21102;-76
2023/12/20 10:36:39;;;;;;;12.95;3.95;;;;;;;8.87;100.00;101497.91;5344410;27;20053;-77
2023/12/20 10:39:14;;;;;;;12.98;3.33;;;;;;;8.89;100.00;101490.78;5350582;27;20023;-77
2023/12/20 10:41:47;;;;;;;12.35;3.25;;;;;;;8.87;100.00;101490.06;5343768;27;20034;-77
2023/12/20 10:44:19;;;;;;;16.08;4.82;;;;;;;8.86;100.00;101493.59;5348889;27;20552;-76
2023/12/20 10:46:57;;;;;;;15.30;3.75;;;;;;;8.86;100.00;101479.69;5348722;27;20045;-77
2023/12/20 10:49:31;;;;;;;14.23;3.70;;;;;;;8.93;100.00;101480.94;5345166;27;20962;-76
2023/12/20 10:52:05;;;;;;;13.88;3.65;;;;;;;8.89;100.00;101477.72;5343862;27;20030;-76
2023/12/20 10:54:37;;;;;;;14.63;3.75;;;;;;;8.87;100.00;101466.53;5320365;27;20404;-76
2023/12/20 10:57:09;;;;;;;16.48;3.20;;;;;;;8.96;100.00;101484.19;5344446;27;20027;-76
2023/12/20 10:59:42;;;;;;;11.77;3.25;;;;;;;8.96;100.00;101478.13;5347347;27;20485;-77
2023/12/20 11:02:14;;;;;;;13.00;3.53;;;;;;;8.95;100.00;101463.41;5343335;27;20035;-76
2023/12/20 11:04:59;;;;;;;13.85;3.17;;;;;;;9.05;100.00;101461.81;5350154;27;20461;-76
2023/12/20 11:07:47;;;;;;;14.65;3.72;;;;;;;9.09;100.00;101455.47;5341112;27;20034;-76
2023/12/20 11:10:25;;;;;;;13.40;3.65;;;;;;;8.93;100.00;101450.44;5349682;27;20041;-77
2023/12/20 11:13:09;;;;;;;15.98;3.33;;;;;;;9.04;100.00;101451.47;5344155;27;20035;-77
2023/12/20 11:15:41;;;;;;;15.05;3.20;;;;;;;8.89;100.00;101442.91;5340475;27;20360;-77
2023/12/20 11:18:15;;;;;;;12.80;3.55;;;;;;;9.01;100.00;101450.72;5339831;27;20027;-76
2023/12/20 11:20:48;;;;;;;12.60;3.45;;;;;;;8.94;100.00;101454.72;5321944;27;20047;-77
2023/12/20 11:23:21;;;;;;;14.88;4.07;;;;;;;8.91;100.00;101454.94;5346332;27;20031;-76
2023/12/20 11:25:56;;;;;;;18.25;4.30;;;;;;;8.90;100.00;101445.44;5344104;27;20027;-77
2023/12/20 11:28:29;;;;;;;18.05;4.70;;;;;;;8.93;100.00;101457.44;5346709;27;20027;-76
2023/12/20 11:31:02;;;;;;;20.45;4.80;;;;;;;8.86;100.00;101443.94;5344797;27;20026;-77
2023/12/20 11:33:38;;;;;;;15.55;3.55;;;;;;;8.93;100.00;101450.44;5352623;27;20030;-76
2023/12/20 11:36:15;;;;;;;15.25;3.38;;;;;;;8.93;100.00;101441.75;5350606;27;20027;-76
2023/12/20 11:38:57;;;;;;;13.88;4.00;;;;;;;8.98;100.00;101445.75;5339388;27;20511;-76
2023/12/20 11:41:29;;;;;;;12.23;3.40;;;;;;;8.83;100.00;101440.72;5338572;27;20415;-76
2023/12/20 11:44:02;;;;;;;18.73;3.47;;;;;;;8.88;100.00;101433.41;5343821;27;20492;-76